Time;durP1;ratioP1;P1;durP2;ratioP2;P2;SDS_P1;SDS_P2;PMS_P1;PMS_P2;Temp;Humidity;BMP_temperature;BMP_pressure;BME280_temperature;BME280_humidity;BME280_pressure;Samples;Min_cycle;Max_cycle;Signal;HPM_P1;HPM_P2
2021/01/04 00:02:36;;;;;;;25.65;15.75;;;;;;;1.96;62.60;95163.03;4771462;30;20086;-42
2021/01/04 00:05:19;;;;;;;26.17;14.98;;;;;;;1.95;62.91;95158.81;4771108;30;20514;-42
2021/01/04 00:08:10;;;;;;;26.02;14.70;;;;;;;1.79;62.42;95165.50;4770463;30;20055;-42
2021/01/04 00:11:14;;;;;;;26.23;14.75;;;;;;;1.78;63.20;95163.91;4771257;30;20060;-41
2021/01/04 00:14:00;;;;;;;22.40;13.80;;;;;;;1.78;62.98;95167.34;4769963;30;20422;-41
2021/01/04 00:17:01;;;;;;;23.45;14.07;;;;;;;1.72;63.21;95159.75;4771153;30;20055;-42
2021/01/04 00:19:48;;;;;;;23.33;13.95;;;;;;;1.63;63.53;95160.44;4770326;30;20075;-44
2021/01/04 00:22:38;;;;;;;24.88;14.98;;;;;;;1.54;63.52;95162.19;4771031;30;20062;-39
2021/01/04 00:25:16;;;;;;;22.95;13.70;;;;;;;1.59;63.39;95164.78;4770798;30;20064;-44
2021/01/04 00:27:48;;;;;;;24.38;13.73;;;;;;;1.58;63.82;95157.06;4776723;30;20402;-44
2021/01/04 00:30:17;;;;;;;24.08;15.25;;;;;;;1.74;63.09;95149.59;4788689;29;20059;-41
2021/01/04 00:32:45;;;;;;;25.70;15.10;;;;;;;1.63;63.29;95159.66;4788847;29;20167;-42
2021/01/04 00:35:15;;;;;;;26.02;15.07;;;;;;;1.51;63.45;95156.66;4788672;29;20472;-42
2021/01/04 00:38:19;;;;;;;26.02;15.20;;;;;;;1.41;63.79;95168.28;4787897;30;20162;-41
2021/01/04 00:41:07;;;;;;;26.02;15.07;;;;;;;1.09;64.95;95167.19;4788858;29;20055;-42
2021/01/04 00:43:44;;;;;;;26.25;15.20;;;;;;;1.15;65.46;95166.03;4788688;30;20052;-42
2021/01/04 00:46:15;;;;;;;27.85;14.35;;;;;;;1.41;64.18;95162.97;4788791;29;20051;-42
2021/01/04 00:49:39;;;;;;;24.45;14.63;;;;;;;1.54;63.51;95166.75;4787901;30;20458;-41
2021/01/04 00:52:43;;;;;;;22.17;13.77;;;;;;;1.52;63.22;95164.34;4786034;30;20530;-42
2021/01/04 00:55:20;;;;;;;;;;;;;;;1.22;64.57;95178.22;4784672;30;20093;-41
2021/01/04 00:58:08;;;;;;;26.27;14.60;;;;;;;0.93;65.92;95171.19;4786924;30;19925;-42
2021/01/04 01:00:41;;;;;;;25.58;14.70;;;;;;;0.89;66.11;95164.84;4788215;29;20120;-42
2021/01/04 01:03:24;;;;;;;24.63;14.60;;;;;;;1.13;65.41;95172.72;4788001;30;20059;-42
2021/01/04 01:06:06;;;;;;;22.77;14.00;;;;;;;1.50;64.00;95174.53;4788234;30;20055;-41
2021/01/04 01:08:36;;;;;;;25.00;14.60;;;;;;;1.66;63.34;95172.41;4787426;29;20138;-43
2021/01/04 01:11:15;;;;;;;25.60;13.63;;;;;;;1.79;62.43;95171.63;4771294;29;20059;-43
2021/01/04 01:13:54;;;;;;;24.08;13.98;;;;;;;1.62;62.95;95174.84;4770108;30;20071;-42
2021/01/04 01:16:49;;;;;;;22.75;13.52;;;;;;;1.47;63.42;95180.47;4768962;30;20407;-42
2021/01/04 01:19:35;;;;;;;24.02;14.48;;;;;;;1.58;63.19;95173.84;4769254;30;20063;-44
2021/01/04 01:22:01;;;;;;;22.65;13.45;;;;;;;1.69;62.75;95189.66;4770040;30;20066;-42
2021/01/04 01:24:28;;;;;;;21.48;13.52;;;;;;;1.84;62.48;95184.06;4770161;30;20066;-42
2021/01/04 01:27:20;;;;;;;25.45;14.65;;;;;;;1.95;61.97;95190.00;4770436;30;20143;-41
2021/01/04 01:30:15;;;;;;;22.60;13.02;;;;;;;1.96;62.13;95184.38;4786992;29;20058;-43
2021/01/04 01:32:51;;;;;;;24.60;14.70;;;;;;;1.88;62.73;95190.38;4787863;29;20059;-41
2021/01/04 01:35:39;;;;;;;25.05;14.80;;;;;;;1.87;62.15;95189.59;4786446;30;20059;-40
2021/01/04 01:38:53;;;;;;;24.85;14.52;;;;;;;1.78;62.07;95182.56;4786979;29;20097;-43
2021/01/04 01:41:53;;;;;;;21.38;12.40;;;;;;;1.68;62.32;95178.22;4785292;29;20560;-43
2021/01/04 01:44:44;;;;;;;23.67;13.23;;;;;;;1.66;62.54;95190.25;4787692;29;20067;-41
2021/01/04 01:47:29;;;;;;;20.40;13.18;;;;;;;1.70;62.55;95188.59;4787423;29;20057;-41
2021/01/04 01:50:05;;;;;;;21.77;13.50;;;;;;;1.60;62.54;95184.25;4787588;29;20063;-41
2021/01/04 01:52:47;;;;;;;22.80;12.95;;;;;;;1.52;62.88;95183.03;4787667;29;20134;-39
2021/01/04 01:55:22;;;;;;;21.10;13.13;;;;;;;1.52;62.76;95190.22;4787338;29;20055;-42
2021/01/04 01:58:00;;;;;;;21.80;12.75;;;;;;;1.57;62.55;95188.28;4786581;29;20059;-43
2021/01/04 02:00:42;;;;;;;21.25;12.65;;;;;;;1.56;62.59;95185.88;4787478;29;20051;-41
2021/01/04 02:03:43;;;;;;;23.73;14.38;;;;;;;1.45;62.94;95184.50;4787327;29;20578;-41
2021/01/04 02:06:50;;;;;;;20.35;12.90;;;;;;;1.45;63.19;95187.94;4785909;29;20478;-42
2021/01/04 02:09:22;;;;;;;20.33;12.95;;;;;;;1.50;62.54;95187.09;4785954;29;20071;-42
2021/01/04 02:12:00;;;;;;;22.50;12.80;;;;;;;1.61;62.38;95183.16;4787057;29;20066;-40
2021/01/04 02:14:38;;;;;;;24.38;14.50;;;;;;;1.75;61.73;95191.16;4787199;30;20055;-40
2021/01/04 02:17:27;;;;;;;26.20;14.88;;;;;;;1.63;62.69;95189.00;4786915;30;20526;-42
2021/01/04 02:20:17;;;;;;;25.48;13.82;;;;;;;1.68;63.07;95182.75;4785559;29;20148;-42
2021/01/04 02:22:59;;;;;;;22.83;14.15;;;;;;;1.75;63.15;95183.94;4786810;29;20051;-41
2021/01/04 02:25:32;;;;;;;23.07;13.47;;;;;;;1.73;62.49;95178.13;4786897;29;20108;-41
2021/01/04 02:28:04;;;;;;;25.38;13.73;;;;;;;1.78;62.65;95188.69;4776723;30;20771;-42
2021/01/04 02:30:31;;;;;;;23.38;14.50;;;;;;;1.70;62.62;95178.72;4768942;30;20059;-41
2021/01/04 02:32:58;;;;;;;21.67;13.38;;;;;;;1.62;62.36;95179.38;4769271;30;20126;-40
2021/01/04 02:35:25;;;;;;;22.15;13.40;;;;;;;1.46;62.75;95184.19;4768820;30;20485;-42
2021/01/04 02:37:52;;;;;;;23.50;13.32;;;;;;;1.30;63.09;95180.19;4768122;30;20116;-40
2021/01/04 02:40:19;;;;;;;22.38;12.70;;;;;;;1.51;62.45;95181.44;4768875;30;20423;-40
2021/01/04 02:42:49;;;;;;;20.65;13.05;;;;;;;1.64;62.30;95178.00;4768730;30;20134;-42
2021/01/04 02:45:28;;;;;;;20.60;12.48;;;;;;;1.61;62.00;95170.59;4767522;30;20060;-44
2021/01/04 02:48:13;;;;;;;19.23;12.60;;;;;;;1.63;62.45;95176.44;4767846;30;20063;-41
2021/01/04 02:50:56;;;;;;;22.95;13.85;;;;;;;1.65;61.92;95168.13;4768736;30;20540;-41
2021/01/04 02:53:40;;;;;;;23.27;13.10;;;;;;;1.54;62.25;95167.53;4768803;30;20074;-43
2021/01/04 02:56:34;;;;;;;21.42;13.10;;;;;;;1.73;61.89;95172.03;4768765;30;20060;-43
2021/01/04 02:59:29;;;;;;;23.05;13.70;;;;;;;1.73;63.31;95180.03;4768062;30;20589;-41
2021/01/04 03:02:11;;;;;;;23.60;13.70;;;;;;;1.74;62.78;95179.72;4768429;30;20048;-40
2021/01/04 03:04:38;;;;;;;24.58;13.82;;;;;;;1.75;62.69;95175.16;4768714;30;20587;-43
2021/01/04 03:07:07;;;;;;;24.35;14.25;;;;;;;1.69;63.44;95185.16;4768658;30;20083;-40
2021/01/04 03:09:34;;;;;;;24.58;14.10;;;;;;;1.69;63.07;95185.16;4767698;30;20063;-42
2021/01/04 03:12:05;;;;;;;22.75;14.43;;;;;;;1.63;63.35;95181.00;4765225;30;20531;-40
2021/01/04 03:15:04;;;;;;;26.60;14.82;;;;;;;1.61;63.53;95183.94;4768744;30;20094;-40
2021/01/04 03:17:45;;;;;;;25.58;14.07;;;;;;;1.78;62.76;95182.56;4767984;30;20056;-40
2021/01/04 03:20:15;;;;;;;24.65;14.88;;;;;;;1.73;62.44;95174.69;4769901;30;20083;-40
2021/01/04 03:22:45;;;;;;;21.73;14.32;;;;;;;1.77;62.78;95186.34;4771934;30;20062;-41
2021/01/04 03:25:29;;;;;;;22.77;13.65;;;;;;;1.90;62.13;95185.56;4772248;30;20079;-40
2021/01/04 03:27:56;;;;;;;24.73;14.90;;;;;;;1.93;62.11;95184.97;4780250;30;20055;-41
2021/01/04 03:30:23;;;;;;;22.08;14.05;;;;;;;2.03;61.38;95194.66;4789981;30;20134;-40
2021/01/04 03:32:50;;;;;;;23.00;14.88;;;;;;;2.11;61.20;95196.63;4789817;29;20056;-41
2021/01/04 03:35:16;;;;;;;23.95;13.95;;;;;;;2.19;60.96;95197.84;4789877;29;20137;-40
2021/01/04 03:37:43;;;;;;;23.08;14.50;;;;;;;2.16;60.96;95188.53;4787843;30;20485;-40
2021/01/04 03:40:10;;;;;;;24.45;15.27;;;;;;;1.96;61.34;95199.59;4789931;29;20059;-40
2021/01/04 03:42:37;;;;;;;25.67;15.02;;;;;;;1.83;61.83;95193.16;4789616;29;20086;-42
2021/01/04 03:45:05;;;;;;;24.48;13.82;;;;;;;1.89;61.99;95177.88;4789551;30;20094;-42
2021/01/04 03:47:31;;;;;;;23.30;14.15;;;;;;;1.97;61.76;95191.28;4787490;30;20138;-42
2021/01/04 03:49:58;;;;;;;29.30;15.25;;;;;;;1.78;62.64;95186.03;4789597;30;20091;-40
2021/01/04 03:52:24;;;;;;;24.42;15.30;;;;;;;1.83;62.71;95185.94;4789762;29;20104;-40
2021/01/04 03:54:50;;;;;;;27.25;14.30;;;;;;;1.74;62.80;95186.94;4789631;29;20146;-43
2021/01/04 03:57:17;;;;;;;22.92;14.60;;;;;;;1.78;62.40;95180.69;4788947;29;20058;-41
2021/01/04 03:59:43;;;;;;;22.95;13.95;;;;;;;1.99;61.26;95189.13;4789102;29;20058;-41
2021/01/04 04:02:10;;;;;;;23.42;13.20;;;;;;;1.61;61.90;95178.59;4789145;30;20502;-40
2021/01/04 04:04:39;;;;;;;23.52;13.30;;;;;;;1.57;62.97;95177.63;4789539;29;20066;-40
2021/01/04 04:07:05;;;;;;;24.23;15.30;;;;;;;1.64;62.95;95178.00;4788185;30;20066;-42
2021/01/04 04:09:31;;;;;;;23.83;14.57;;;;;;;1.59;63.34;95191.44;4788773;29;20055;-41
2021/01/04 04:11:58;;;;;;;23.13;13.77;;;;;;;1.47;63.45;95169.78;4788969;29;20055;-41
2021/01/04 04:14:25;;;;;;;25.02;14.27;;;;;;;1.21;64.37;95176.63;4788942;30;20139;-41
2021/01/04 04:16:51;;;;;;;24.15;14.68;;;;;;;1.31;63.81;95181.78;4788884;29;20151;-43
2021/01/04 04:19:17;;;;;;;22.45;13.68;;;;;;;1.51;62.90;95188.66;4788121;29;20138;-41
2021/01/04 04:21:50;;;;;;;21.85;13.35;;;;;;;1.50;62.58;95179.88;4788984;30;20055;-42
2021/01/04 04:24:17;;;;;;;23.83;13.57;;;;;;;1.47;62.79;95187.66;4789153;30;20138;-40
2021/01/04 04:26:43;;;;;;;22.55;13.95;;;;;;;1.50;62.80;95179.88;4787954;30;20047;-39
2021/01/04 04:29:09;;;;;;;22.52;13.20;;;;;;;1.49;62.45;95188.94;4788284;29;20091;-39
2021/01/04 04:31:47;;;;;;;24.48;13.30;;;;;;;1.36;62.87;95174.47;4788627;29;20143;-41
2021/01/04 04:34:14;;;;;;;23.30;13.65;;;;;;;1.51;62.95;95186.00;4788917;30;20051;-39
2021/01/04 04:36:42;;;;;;;24.95;14.30;;;;;;;1.69;62.28;95184.34;4788943;29;20055;-41
2021/01/04 04:39:14;;;;;;;23.33;13.70;;;;;;;1.73;61.93;95174.69;4787917;30;20081;-41
2021/01/04 04:41:44;;;;;;;24.10;13.65;;;;;;;1.67;62.44;95181.97;4788302;29;20055;-41
2021/01/04 04:44:27;;;;;;;20.75;13.30;;;;;;;1.63;62.15;95178.31;4788364;29;20514;-40
2021/01/04 04:47:06;;;;;;;22.25;13.80;;;;;;;1.45;63.28;95179.94;4788523;29;20514;-40
2021/01/04 04:49:57;;;;;;;24.77;13.70;;;;;;;1.61;62.90;95181.25;4787882;29;20061;-40
2021/01/04 04:52:59;;;;;;;24.40;13.82;;;;;;;1.78;62.37;95180.69;4788547;29;20055;-40
2021/01/04 04:55:31;;;;;;;26.08;15.10;;;;;;;1.86;62.13;95184.56;4788465;29;20069;-41
2021/01/04 04:58:22;;;;;;;22.75;15.07;;;;;;;1.84;62.51;95181.41;4787654;29;20058;-40
2021/01/04 05:01:11;;;;;;;28.00;15.15;;;;;;;1.82;62.74;95180.91;4788228;29;20114;-41
2021/01/04 05:04:25;;;;;;;23.25;14.07;;;;;;;1.89;62.01;95180.53;4787485;30;20535;-41
2021/01/04 05:06:55;;;;;;;25.50;15.05;;;;;;;1.89;62.10;95176.00;4788093;29;20087;-41
2021/01/04 05:09:39;;;;;;;24.00;14.75;;;;;;;1.95;61.09;95174.81;4787174;29;20074;-41
2021/01/04 05:12:15;;;;;;;23.58;14.25;;;;;;;1.84;61.22;95173.41;4779183;29;20127;-41
2021/01/04 05:14:49;;;;;;;23.73;13.90;;;;;;;1.76;62.13;95179.44;4769887;30;20075;-41
2021/01/04 05:17:42;;;;;;;20.40;13.93;;;;;;;1.80;62.28;95177.75;4769836;30;20064;-41
2021/01/04 05:20:26;;;;;;;22.85;12.88;;;;;;;1.77;61.56;95181.00;4768705;30;20147;-42
2021/01/04 05:22:56;;;;;;;25.67;14.80;;;;;;;1.83;61.55;95179.84;4769852;30;20059;-43
2021/01/04 05:25:46;;;;;;;20.90;13.38;;;;;;;1.71;62.39;95192.84;4769964;30;20109;-42
2021/01/04 05:28:34;;;;;;;20.90;12.95;;;;;;;1.76;62.25;95195.44;4780225;30;20117;-42
2021/01/04 05:31:31;;;;;;;24.48;12.85;;;;;;;1.62;62.13;95190.84;4787845;30;20107;-42
2021/01/04 05:34:10;;;;;;;22.80;12.27;;;;;;;1.59;62.43;95182.63;4786647;29;20491;-42
2021/01/04 05:37:38;;;;;;;22.25;13.95;;;;;;;1.64;61.59;95180.69;4787569;29;20143;-45
2021/01/04 05:40:14;;;;;;;24.58;13.63;;;;;;;1.59;61.70;95183.47;4785191;30;20116;-42
2021/01/04 05:43:10;;;;;;;19.25;12.05;;;;;;;1.63;62.49;95184.44;4769833;30;20435;-41
2021/01/04 05:45:40;;;;;;;24.42;12.55;;;;;;;1.58;62.10;95176.53;4786852;30;20082;-43
2021/01/04 05:48:06;;;;;;;21.23;13.10;;;;;;;1.69;61.30;95176.34;4786846;29;20063;-43
2021/01/04 05:50:45;;;;;;;20.75;12.68;;;;;;;1.60;61.52;95170.91;4787353;29;20055;-42
2021/01/04 05:53:11;;;;;;;20.60;12.32;;;;;;;1.68;61.08;95174.75;4787776;29;20053;-42
2021/01/04 05:55:38;;;;;;;21.08;13.45;;;;;;;1.66;61.34;95163.59;4787647;29;20119;-44
2021/01/04 05:58:16;;;;;;;22.63;12.95;;;;;;;1.76;61.60;95158.88;4786680;29;20139;-43
2021/01/04 06:00:43;;;;;;;21.33;13.18;;;;;;;1.84;61.17;95162.72;4787144;29;20078;-43
2021/01/04 06:03:13;;;;;;;23.38;14.32;;;;;;;1.80;61.63;95170.53;4787297;29;20063;-42
2021/01/04 06:05:40;;;;;;;18.60;11.73;;;;;;;1.72;61.18;95168.53;4778299;30;20531;-43
2021/01/04 06:08:28;;;;;;;22.33;13.32;;;;;;;1.76;62.06;95166.88;4768560;30;20135;-43
2021/01/04 06:11:05;;;;;;;21.52;12.68;;;;;;;1.75;61.42;95175.16;4769389;30;20087;-42
2021/01/04 06:13:44;;;;;;;24.30;13.98;;;;;;;1.80;61.35;95173.19;4769145;30;20062;-41
2021/01/04 06:16:24;;;;;;;22.20;13.63;;;;;;;1.91;60.65;95173.78;4769370;30;20055;-42
2021/01/04 06:18:54;;;;;;;22.75;14.00;;;;;;;1.80;61.41;95178.53;4768485;30;20109;-44
2021/01/04 06:21:24;;;;;;;24.38;13.88;;;;;;;1.82;61.75;95183.56;4769056;30;20067;-45
2021/01/04 06:23:58;;;;;;;21.42;13.20;;;;;;;1.68;61.86;95185.44;4768872;30;20510;-41
2021/01/04 06:26:24;;;;;;;26.25;14.95;;;;;;;1.69;61.83;95181.66;4769406;30;20056;-40
2021/01/04 06:28:51;;;;;;;22.50;13.40;;;;;;;1.73;61.62;95180.81;4784081;30;20055;-41
2021/01/04 06:31:27;;;;;;;25.73;14.27;;;;;;;1.73;61.64;95172.81;4786941;29;20116;-43
2021/01/04 06:34:00;;;;;;;22.85;13.95;;;;;;;1.74;62.12;95184.25;4787109;29;20077;-41
2021/01/04 06:36:30;;;;;;;24.60;14.07;;;;;;;1.62;62.13;95182.84;4787091;29;20571;-41
2021/01/04 06:39:08;;;;;;;25.85;14.50;;;;;;;1.83;61.07;95185.94;4786293;29;20514;-42
2021/01/04 06:41:34;;;;;;;23.75;14.40;;;;;;;1.73;61.20;95182.69;4787036;29;20479;-40
2021/01/04 06:44:19;;;;;;;25.00;14.25;;;;;;;1.62;62.21;95188.16;4786900;30;20059;-41
2021/01/04 06:47:04;;;;;;;24.58;14.05;;;;;;;1.51;62.72;95189.44;4786932;30;20142;-40
2021/01/04 06:49:39;;;;;;;26.45;14.95;;;;;;;1.57;62.64;95176.81;4787182;29;20059;-40
2021/01/04 06:52:37;;;;;;;25.65;15.63;;;;;;;1.55;62.75;95177.09;4787212;29;20043;-40
2021/01/04 06:55:37;;;;;;;24.30;14.25;;;;;;;1.53;63.11;95173.16;4786851;29;20063;-41
2021/01/04 06:58:41;;;;;;;28.45;15.02;;;;;;;1.72;61.63;95189.88;4786074;29;20481;-40
2021/01/04 07:01:37;;;;;;;24.38;15.20;;;;;;;1.33;62.22;95187.59;4786814;29;20059;-42
2021/01/04 07:04:25;;;;;;;29.50;14.05;;;;;;;1.40;62.50;95180.84;4786596;29;20051;-41
2021/01/04 07:07:00;;;;;;;26.02;14.90;;;;;;;1.49;62.03;95183.59;4786732;29;20061;-41
2021/01/04 07:09:38;;;;;;;25.77;15.10;;;;;;;1.36;62.95;95182.47;4786404;29;20097;-41
2021/01/04 07:12:18;;;;;;;29.45;16.80;;;;;;;1.43;63.02;95183.97;4787333;29;20077;-43
2021/01/04 07:15:05;;;;;;;26.92;15.32;;;;;;;1.48;63.13;95187.38;4767811;30;20434;-40
2021/01/04 07:17:40;;;;;;;28.13;16.10;;;;;;;1.51;62.87;95194.78;4762694;30;20062;-43
2021/01/04 07:20:25;;;;;;;31.05;15.82;;;;;;;1.69;62.59;95198.47;4768463;30;20091;-41
2021/01/04 07:23:30;;;;;;;30.33;16.10;;;;;;;1.67;62.09;95194.53;4769416;30;20215;-41
2021/01/04 07:26:07;;;;;;;32.67;16.75;;;;;;;1.63;62.08;95205.78;4768274;30;20511;-41
2021/01/04 07:28:37;;;;;;;29.65;15.80;;;;;;;1.56;62.35;95209.88;4780979;30;20520;-42
2021/01/04 07:31:23;;;;;;;29.15;14.68;;;;;;;1.72;62.04;95197.09;4786269;29;20090;-41
2021/01/04 07:33:55;;;;;;;27.83;16.27;;;;;;;1.70;62.37;95200.06;4781995;30;20113;-43
2021/01/04 07:36:38;;;;;;;33.53;16.80;;;;;;;1.66;62.38;95217.75;4768237;30;20052;-41
2021/01/04 07:39:29;;;;;;;32.75;17.35;;;;;;;1.50;62.44;95201.19;4767709;30;20060;-41
2021/01/04 07:42:32;;;;;;;31.38;16.67;;;;;;;1.57;62.87;95206.94;4768130;30;20067;-41
2021/01/04 07:45:36;;;;;;;27.53;15.33;;;;;;;1.47;63.11;95217.78;4768126;30;20063;-41
2021/01/04 07:48:27;;;;;;;33.72;16.60;;;;;;;1.24;64.12;95213.34;4768673;30;20055;-41
2021/01/04 07:51:02;;;;;;;30.45;16.15;;;;;;;1.22;63.94;95213.63;4766498;30;20066;-42
2021/01/04 07:53:56;;;;;;;28.98;16.45;;;;;;;1.33;63.78;95214.25;4759816;30;20060;-40
2021/01/04 07:56:22;;;;;;;34.13;17.45;;;;;;;1.22;64.07;95229.63;4752970;30;20545;-42
2021/01/04 07:58:52;;;;;;;33.95;16.90;;;;;;;1.24;64.05;95218.69;4765507;30;20150;-42
2021/01/04 08:01:27;;;;;;;31.45;16.80;;;;;;;1.00;63.94;95221.41;4758580;30;20063;-40
2021/01/04 08:03:56;;;;;;;35.22;17.77;;;;;;;0.91;65.56;95215.94;4762989;30;20087;-42
2021/01/04 08:06:40;;;;;;;32.85;17.10;;;;;;;1.24;64.09;95210.69;4765360;30;20106;-42
2021/01/04 08:09:31;;;;;;;32.80;16.95;;;;;;;1.43;63.63;95218.63;4769797;30;20078;-41
2021/01/04 08:12:34;;;;;;;32.13;16.75;;;;;;;1.18;64.11;95217.97;4762699;30;20074;-42
2021/01/04 08:15:21;;;;;;;32.83;16.60;;;;;;;1.17;64.36;95224.38;4766366;30;20143;-43
2021/01/04 08:18:08;;;;;;;35.78;17.85;;;;;;;1.33;64.47;95214.25;4761142;30;20135;-42
2021/01/04 08:20:37;;;;;;;33.58;18.17;;;;;;;1.24;64.59;95216.03;4763253;30;20059;-43
2021/01/04 08:23:29;;;;;;;32.25;17.92;;;;;;;1.29;64.50;95221.25;4770841;30;20131;-41
2021/01/04 08:25:55;;;;;;;35.53;17.70;;;;;;;1.43;63.79;95219.44;4753155;30;20097;-41
2021/01/04 08:28:45;;;;;;;36.00;17.63;;;;;;;1.47;63.88;95219.66;4753488;30;20056;-41
2021/01/04 08:31:30;;;;;;;32.05;16.42;;;;;;;1.13;64.78;95226.03;4767126;30;20075;-41
2021/01/04 08:34:04;;;;;;;32.30;17.02;;;;;;;1.31;64.04;95227.88;4759037;30;20083;-41
2021/01/04 08:36:45;;;;;;;36.15;19.08;;;;;;;1.39;63.70;95218.44;4756009;30;20105;-42
2021/01/04 08:39:20;;;;;;;36.85;18.02;;;;;;;1.53;63.27;95227.28;4754888;30;20060;-43
2021/01/04 08:42:13;;;;;;;31.63;17.38;;;;;;;1.59;63.35;95228.78;4760773;30;20067;-43
2021/01/04 08:44:39;;;;;;;31.77;16.52;;;;;;;1.02;65.09;95235.25;4761044;30;20079;-41
2021/01/04 08:47:16;;;;;;;32.50;17.90;;;;;;;1.20;64.98;95231.78;4755995;30;20139;-41
2021/01/04 08:49:45;;;;;;;31.88;17.60;;;;;;;1.34;63.87;95229.97;4762209;30;20536;-41
2021/01/04 08:52:20;;;;;;;36.50;19.05;;;;;;;1.33;63.96;95240.91;4763880;30;20438;-41
2021/01/04 08:54:58;;;;;;;33.38;18.10;;;;;;;1.38;63.60;95249.63;4761080;30;20052;-43
2021/01/04 08:57:39;;;;;;;36.20;17.80;;;;;;;1.44;63.41;95242.34;4754119;30;20052;-41
2021/01/04 09:00:20;;;;;;;31.52;18.40;;;;;;;1.38;63.58;95254.16;4758342;30;20411;-42
2021/01/04 09:02:49;;;;;;;31.20;17.08;;;;;;;1.44;63.68;95241.56;4756999;30;20142;-42
2021/01/04 09:05:33;;;;;;;32.67;16.58;;;;;;;1.39;63.68;95237.09;4769758;30;20091;-41
2021/01/04 09:08:03;;;;;;;35.50;18.55;;;;;;;1.25;64.30;95244.25;4762021;30;20059;-40
2021/01/04 09:10:32;;;;;;;32.30;17.08;;;;;;;1.15;64.72;95243.31;4754071;30;21802;-44
2021/01/04 09:13:32;;;;;;;34.38;17.80;;;;;;;1.38;64.13;95238.19;4757423;30;20388;-41
2021/01/04 09:16:17;;;;;;;36.40;18.85;;;;;;;1.46;63.49;95239.38;4753324;30;20489;-43
2021/01/04 09:18:51;;;;;;;30.98;17.02;;;;;;;1.36;63.60;95235.78;4760274;30;20080;-42
2021/01/04 09:21:28;;;;;;;32.47;17.13;;;;;;;1.47;63.75;95236.44;4752675;30;20139;-42
2021/01/04 09:24:07;;;;;;;35.17;18.20;;;;;;;1.55;63.51;95232.31;4783917;30;20131;-41
2021/01/04 09:26:37;;;;;;;34.92;17.90;;;;;;;1.49;63.37;95233.47;4787947;30;20066;-43
2021/01/04 09:29:13;;;;;;;34.58;18.27;;;;;;;1.22;64.30;95236.81;4787204;29;20075;-41
2021/01/04 09:31:51;;;;;;;37.13;18.05;;;;;;;1.22;64.08;95218.97;4786916;30;20063;-42
2021/01/04 09:34:19;;;;;;;35.83;18.50;;;;;;;1.23;64.30;95225.06;4772418;29;20064;-41
2021/01/04 09:36:46;;;;;;;37.05;18.85;;;;;;;1.32;64.50;95234.00;4775330;30;20129;-41
2021/01/04 09:39:15;;;;;;;31.75;16.98;;;;;;;1.26;64.79;95219.16;4786787;29;20506;-42
2021/01/04 09:41:42;;;;;;;32.97;17.05;;;;;;;1.32;64.32;95216.13;4769567;30;20158;-43
2021/01/04 09:44:13;;;;;;;36.55;18.23;;;;;;;1.33;64.28;95216.91;4769689;30;20060;-41
2021/01/04 09:46:45;;;;;;;38.03;18.60;;;;;;;1.27;64.72;95228.75;4769154;30;20064;-42
2021/01/04 09:49:19;;;;;;;36.15;19.17;;;;;;;1.46;64.14;95223.38;4761539;30;20095;-41
2021/01/04 09:51:49;;;;;;;36.25;17.83;;;;;;;1.26;64.73;95229.81;4762754;30;20345;-41
2021/01/04 09:54:25;;;;;;;35.85;18.20;;;;;;;1.51;64.38;95231.31;4787325;30;20051;-42
2021/01/04 09:56:59;;;;;;;37.10;18.55;;;;;;;1.58;63.67;95237.06;4779637;29;20138;-45
2021/01/04 09:59:26;;;;;;;33.08;18.13;;;;;;;1.55;63.44;95217.09;4759139;30;20400;-42
2021/01/04 10:01:59;;;;;;;33.47;17.42;;;;;;;1.47;64.03;95220.44;4767455;30;20084;-42
2021/01/04 10:04:29;;;;;;;36.45;18.38;;;;;;;1.28;64.61;95215.13;4769606;29;20581;-41
2021/01/04 10:06:58;;;;;;;36.15;18.25;;;;;;;1.32;64.70;95221.47;4769369;30;20065;-42
2021/01/04 10:09:29;;;;;;;38.65;17.85;;;;;;;1.24;64.98;95213.34;4768568;29;20059;-43
2021/01/04 10:12:00;;;;;;;37.08;18.65;;;;;;;1.21;65.13;95221.94;4769254;30;20060;-41
2021/01/04 10:14:27;;;;;;;35.60;17.90;;;;;;;1.11;65.58;95213.00;4769425;30;20043;-41
2021/01/04 10:16:57;;;;;;;37.72;18.30;;;;;;;1.08;65.61;95207.47;4763146;30;20056;-42
2021/01/04 10:19:30;;;;;;;32.10;16.67;;;;;;;1.31;65.25;95213.78;4768395;30;20060;-44
2021/01/04 10:22:00;;;;;;;39.10;18.33;;;;;;;1.12;65.51;95214.56;4769219;30;20066;-42
2021/01/04 10:24:38;;;;;;;32.22;17.20;;;;;;;1.30;65.14;95206.84;4769226;30;20048;-43
2021/01/04 10:27:06;;;;;;;38.95;18.10;;;;;;;1.24;65.05;95194.69;4769164;30;20060;-41
2021/01/04 10:29:53;;;;;;;38.65;19.30;;;;;;;1.26;65.21;95208.50;4767756;30;20067;-42
2021/01/04 10:32:19;;;;;;;36.03;17.42;;;;;;;1.22;65.29;95210.19;4769076;30;20136;-42
2021/01/04 10:34:48;;;;;;;36.33;18.15;;;;;;;1.38;64.97;95203.53;4769149;30;20056;-41
2021/01/04 10:37:40;;;;;;;34.03;17.30;;;;;;;1.33;65.08;95198.25;4769354;30;20060;-43
2021/01/04 10:40:11;;;;;;;37.67;18.92;;;;;;;1.32;64.97;95188.69;4764941;30;20051;-42
2021/01/04 10:42:40;;;;;;;37.45;18.48;;;;;;;1.28;65.01;95185.03;4787560;29;20084;-42
2021/01/04 10:45:12;;;;;;;36.72;18.73;;;;;;;1.30;64.98;95188.19;4778656;29;20395;-43
2021/01/04 10:48:01;;;;;;;34.53;18.40;;;;;;;1.26;64.95;95181.88;4768812;30;20442;-44
2021/01/04 10:50:36;;;;;;;39.70;19.33;;;;;;;1.26;65.06;95182.66;4769191;30;20121;-43
2021/01/04 10:53:06;;;;;;;36.38;18.73;;;;;;;1.26;64.97;95177.31;4769030;30;20584;-42
2021/01/04 10:55:37;;;;;;;39.03;19.20;;;;;;;1.32;64.84;95175.38;4767861;30;20515;-42
2021/01/04 10:58:29;;;;;;;36.55;19.65;;;;;;;1.27;65.13;95167.44;4781552;29;20583;-41
2021/01/04 11:01:18;;;;;;;38.75;19.15;;;;;;;1.22;65.21;95154.22;4786641;30;20076;-43
2021/01/04 11:03:56;;;;;;;40.33;20.05;;;;;;;1.10;65.52;95152.00;4786453;29;20079;-43
2021/01/04 11:06:33;;;;;;;41.88;20.70;;;;;;;1.09;65.67;95153.88;4786590;29;20059;-42
2021/01/04 11:09:15;;;;;;;40.70;20.95;;;;;;;1.08;65.75;95154.19;4796858;24;20051;-41
2021/01/04 11:11:46;;;;;;;40.33;19.85;;;;;;;0.85;66.55;95150.53;4765940;30;20059;-41
2021/01/04 11:14:21;;;;;;;40.03;20.83;;;;;;;0.83;66.32;95147.38;4790494;29;20056;-42
2021/01/04 11:17:19;;;;;;;39.53;19.70;;;;;;;0.74;66.82;95136.56;4751164;30;20064;-42
2021/01/04 11:19:46;;;;;;;42.58;20.85;;;;;;;0.85;66.98;95142.56;4751787;30;20129;-43
2021/01/04 11:22:13;;;;;;;41.22;21.67;;;;;;;0.95;66.33;95141.59;4751102;30;20056;-40
2021/01/04 11:24:40;;;;;;;40.42;21.55;;;;;;;1.13;65.86;95135.44;4751243;30;20566;-41
2021/01/04 11:27:07;;;;;;;44.75;23.58;;;;;;;1.24;65.41;95130.75;4751760;30;20067;-40
2021/01/04 11:29:38;;;;;;;44.63;21.70;;;;;;;1.14;65.64;95137.03;4749980;30;20176;-41
2021/01/04 11:32:07;;;;;;;43.72;22.95;;;;;;;1.14;65.69;95143.16;4735313;30;20060;-45
2021/01/04 11:34:33;;;;;;;39.55;21.92;;;;;;;0.99;66.09;95143.38;4751192;30;20485;-41
2021/01/04 11:37:00;;;;;;;43.78;22.73;;;;;;;0.55;67.25;95152.53;4751657;30;20143;-43
2021/01/04 11:39:27;;;;;;;41.67;23.23;;;;;;;0.54;67.80;95150.97;4750880;30;20056;-41
2021/01/04 11:41:54;;;;;;;40.40;21.88;;;;;;;0.68;66.95;95125.22;4754569;30;20063;-41
2021/01/04 11:44:20;;;;;;;46.03;22.73;;;;;;;1.00;66.44;95147.63;4755589;30;20052;-41
2021/01/04 11:46:46;;;;;;;44.58;23.27;;;;;;;0.67;67.45;95141.47;4756182;30;20060;-41
2021/01/04 11:49:13;;;;;;;41.38;22.40;;;;;;;0.70;67.71;95141.69;4757231;30;20122;-40
2021/01/04 11:51:39;;;;;;;44.30;24.00;;;;;;;0.84;66.92;95144.41;4756018;30;20063;-40
2021/01/04 11:54:07;;;;;;;40.05;22.58;;;;;;;0.72;66.73;95125.44;4756034;30;20056;-40
2021/01/04 11:56:34;;;;;;;43.28;23.48;;;;;;;0.95;66.07;95138.94;4758050;30;20060;-43
2021/01/04 11:59:00;;;;;;;42.35;24.52;;;;;;;0.98;65.95;95135.69;4757997;30;20514;-41
2021/01/04 12:01:27;;;;;;;45.33;24.27;;;;;;;1.08;66.59;95128.34;4756258;30;20153;-40
2021/01/04 12:03:54;;;;;;;43.92;23.77;;;;;;;1.06;66.22;95127.81;4755569;30;20060;-41
2021/01/04 12:06:21;;;;;;;48.13;25.27;;;;;;;1.14;66.42;95131.72;4756822;30;20063;-42
2021/01/04 12:08:48;;;;;;;42.92;23.02;;;;;;;0.94;66.65;95130.13;4757010;30;20090;-41
2021/01/04 12:11:15;;;;;;;43.70;23.25;;;;;;;0.99;66.35;95119.41;4762504;30;20056;-41
2021/01/04 12:13:41;;;;;;;49.30;25.60;;;;;;;1.05;65.95;95118.25;4758910;30;20048;-42
2021/01/04 12:16:08;;;;;;;44.22;22.60;;;;;;;1.16;66.02;95117.00;4756560;30;20064;-41